Time;durP1;ratioP1;P1;durP2;ratioP2;P2;SDS_P1;SDS_P2;PMS_P1;PMS_P2;Temp;Humidity;BMP_temperature;BMP_pressure;BME280_temperature;BME280_humidity;BME280_pressure;Samples;Min_cycle;Max_cycle;Signal;HPM_P1;HPM_P2
2022/06/15 00:01:19;;;;;;;2.20;1.30;;;23.70;53.30;;;;;;220015;1271;22628;-58
2022/06/15 00:06:25;;;;;;;2.30;1.30;;;23.70;53.50;;;;;;219937;1271;22582;-54
2022/06/15 00:11:30;;;;;;;2.10;1.40;;;23.70;53.30;;;;;;219919;1271;22642;-55
2022/06/15 00:16:33;;;;;;;2.80;1.30;;;23.70;52.90;;;;;;219872;1271;22573;-55
2022/06/15 00:21:36;;;;;;;2.80;1.50;;;23.60;53.90;;;;;;219914;1271;26601;-54
2022/06/15 00:26:39;;;;;;;2.30;1.40;;;23.60;53.50;;;;;;219880;1271;22717;-54
2022/06/15 00:31:42;;;;;;;1.90;1.20;;;23.60;53.40;;;;;;219898;1271;22541;-56
2022/06/15 00:36:45;;;;;;;2.70;1.30;;;23.60;53.20;;;;;;219924;1271;22563;-58
2022/06/15 00:41:47;;;;;;;2.50;1.30;;;23.60;53.30;;;;;;219931;1271;22537;-55
2022/06/15 00:46:54;;;;;;;3.70;1.40;;;23.60;53.30;;;;;;219950;1271;25497;-55
2022/06/15 00:52:01;;;;;;;1.90;1.30;;;23.60;53.60;;;;;;220061;1271;24239;-56
2022/06/15 00:57:04;;;;;;;2.20;1.30;;;23.60;53.30;;;;;;220010;1271;25330;-55
2022/06/15 01:02:08;;;;;;;2.70;1.30;;;23.60;53.40;;;;;;219977;1271;22571;-55
2022/06/15 01:07:38;;;;;;;2.30;1.40;;;23.50;53.30;;;;;;219979;1271;22579;-56
2022/06/15 01:13:04;;;;;;;3.00;1.20;;;23.50;53.30;;;;;;219987;1271;22573;-55
2022/06/15 01:18:21;;;;;;;2.40;1.30;;;23.50;53.30;;;;;;219798;1271;320086;-54
2022/06/15 01:23:42;;;;;;;1.70;1.10;;;23.50;53.30;;;;;;219859;1271;22595;-58
2022/06/15 01:29:26;;;;;;;2.30;1.60;;;23.50;53.40;;;;;;220120;1270;22541;-56
2022/06/15 01:34:37;;;;;;;2.10;1.30;;;23.50;53.20;;;;;;219503;1271;22545;-56
2022/06/15 01:39:56;;;;;;;2.20;1.30;;;23.50;53.20;;;;;;220098;1271;22596;-56
2022/06/15 01:45:07;;;;;;;1.70;1.20;;;23.50;53.30;;;;;;219760;1274;22544;-56
2022/06/15 01:50:11;;;;;;;2.30;1.50;;;23.50;53.20;;;;;;220001;1271;25430;-56
2022/06/15 01:55:26;;;;;;;2.00;1.20;;;23.40;52.60;;;;;;220002;1272;25509;-55
2022/06/15 02:00:30;;;;;;;2.70;1.40;;;23.40;53.60;;;;;;219973;1271;24791;-56
2022/06/15 02:05:35;;;;;;;2.60;1.30;;;23.30;53.20;;;;;;220030;1271;24723;-59
2022/06/15 02:11:13;;;;;;;3.00;1.50;;;23.30;53.20;;;;;;219943;1271;26674;-54
2022/06/15 02:16:24;;;;;;;2.40;1.30;;;23.30;53.30;;;;;;219805;1271;22548;-56
2022/06/15 02:21:29;;;;;;;2.60;1.50;;;23.30;53.30;;;;;;219912;1271;22563;-57
2022/06/15 02:26:34;;;;;;;2.90;1.40;;;23.30;53.20;;;;;;220077;1271;25737;-55
2022/06/15 02:31:37;;;;;;;1.90;1.20;;;23.30;53.30;;;;;;219946;1274;24699;-56
2022/06/15 02:36:40;;;;;;;2.30;1.40;;;23.30;53.20;;;;;;220039;1272;24297;-55
2022/06/15 02:41:42;;;;;;;2.10;1.40;;;23.30;53.20;;;;;;219994;1274;22723;-57
2022/06/15 02:46:48;;;;;;;2.20;1.30;;;23.20;53.20;;;;;;220006;1271;24278;-57
2022/06/15 02:52:04;;;;;;;2.30;1.20;;;23.20;53.20;;;;;;220064;1272;24451;-56
2022/06/15 02:57:10;;;;;;;2.00;1.30;;;23.20;53.20;;;;;;219907;1271;25265;-55
2022/06/15 03:02:14;;;;;;;2.20;1.40;;;23.20;53.20;;;;;;219737;1271;25620;-57
2022/06/15 03:07:22;;;;;;;3.20;1.30;;;23.20;53.20;;;;;;219807;1271;22804;-56
2022/06/15 03:12:25;;;;;;;2.40;1.30;;;23.20;53.20;;;;;;220054;1271;22719;-56
2022/06/15 03:17:31;;;;;;;2.10;1.30;;;23.20;53.20;;;;;;219817;1271;22557;-56
2022/06/15 03:22:42;;;;;;;2.40;1.40;;;23.20;53.20;;;;;;219697;1271;22980;-55
2022/06/15 03:27:55;;;;;;;2.20;1.30;;;23.10;53.20;;;;;;219995;1272;24295;-57
2022/06/15 03:33:04;;;;;;;2.60;1.20;;;23.10;53.20;;;;;;219847;1271;25384;-57
2022/06/15 03:38:15;;;;;;;2.50;1.40;;;23.10;53.40;;;;;;219858;1271;24234;-59
2022/06/15 03:43:25;;;;;;;2.10;1.30;;;23.10;53.20;;;;;;219634;1271;22612;-60
2022/06/15 03:48:28;;;;;;;1.90;1.40;;;23.10;53.20;;;;;;219807;1274;22894;-56
2022/06/15 03:53:30;;;;;;;2.80;1.40;;;23.10;53.30;;;;;;219976;1270;22596;-57
2022/06/15 03:58:32;;;;;;;1.90;1.30;;;23.10;53.20;;;;;;220097;1270;22770;-57
2022/06/15 04:03:35;;;;;;;1.90;1.20;;;23.10;53.60;;;;;;220076;1271;22532;-54
2022/06/15 04:08:42;;;;;;;2.00;1.30;;;23.10;53.20;;;;;;219813;1271;22588;-55
2022/06/15 04:14:10;;;;;;;2.40;1.40;;;23.10;53.20;;;;;;219906;1271;22566;-56
2022/06/15 04:19:15;;;;;;;2.10;1.20;;;23.00;53.50;;;;;;219851;1272;22615;-57
2022/06/15 04:24:36;;;;;;;1.90;1.30;;;23.00;53.20;;;;;;220096;1271;25627;-56
2022/06/15 04:29:44;;;;;;;2.20;1.20;;;23.00;53.20;;;;;;219923;1272;22576;-56
2022/06/15 04:34:55;;;;;;;2.30;1.50;;;23.10;53.20;;;;;;220076;1270;23910;-57
2022/06/15 04:40:18;;;;;;;2.10;1.30;;;23.00;53.50;;;;;;219855;1271;22966;-58
2022/06/15 04:45:27;;;;;;;2.30;1.40;;;23.00;53.20;;;;;;219800;1271;24278;-55
2022/06/15 04:50:45;;;;;;;2.60;1.40;;;23.00;53.20;;;;;;219905;1274;25499;-55
2022/06/15 04:55:58;;;;;;;2.20;1.30;;;23.10;53.80;;;;;;219762;1271;25446;-56
2022/06/15 05:01:03;;;;;;;1.80;1.20;;;23.00;53.20;;;;;;219959;1271;22850;-57
2022/06/15 05:06:29;;;;;;;1.80;1.20;;;23.00;53.20;;;;;;219637;1271;25274;-56
2022/06/15 05:11:32;;;;;;;2.20;1.20;;;23.10;53.20;;;;;;219921;1271;22556;-56
2022/06/15 05:16:38;;;;;;;3.50;1.40;;;23.00;53.20;;;;;;219899;1270;22560;-55
2022/06/15 05:21:49;;;;;;;2.20;1.30;;;23.00;53.20;;;;;;219625;1272;23942;-57
2022/06/15 05:26:52;;;;;;;1.90;1.20;;;23.10;53.60;;;;;;219962;1273;24222;-55
2022/06/15 05:31:57;;;;;;;3.20;1.40;;;23.00;52.70;;;;;;220012;1270;22560;-55
2022/06/15 05:37:00;;;;;;;2.40;1.70;;;23.00;53.20;;;;;;219880;1270;24251;-56
2022/06/15 05:42:09;;;;;;;3.40;1.80;;;23.10;53.20;;;;;;219914;1271;26865;-55
2022/06/15 05:47:12;;;;;;;2.60;1.30;;;23.00;53.30;;;;;;219959;1271;25392;-55
2022/06/15 05:52:34;;;;;;;2.20;1.30;;;23.00;53.50;;;;;;220035;1270;25574;-57
2022/06/15 05:57:39;;;;;;;2.10;1.40;;;23.00;53.20;;;;;;220119;1270;24221;-54
2022/06/15 06:02:45;;;;;;;2.30;1.30;;;23.00;53.10;;;;;;220009;1270;22660;-57
2022/06/15 06:07:54;;;;;;;1.70;1.20;;;23.10;53.20;;;;;;220016;1270;24275;-55
2022/06/15 06:12:59;;;;;;;3.30;1.50;;;23.00;53.70;;;;;;220158;1270;22772;-56
2022/06/15 06:18:07;;;;;;;2.60;1.40;;;23.10;53.40;;;;;;220030;1271;23057;-57
2022/06/15 06:23:10;;;;;;;2.40;1.50;;;23.10;53.00;;;;;;220019;1271;22658;-56
2022/06/15 06:28:28;;;;;;;2.20;1.40;;;23.10;53.30;;;;;;219689;1271;23917;-56
2022/06/15 06:33:35;;;;;;;2.10;1.40;;;23.10;53.20;;;;;;220017;1271;22822;-58
2022/06/15 06:38:38;;;;;;;2.30;1.30;;;23.20;53.00;;;;;;219936;1270;22911;-56
2022/06/15 06:43:40;;;;;;;2.70;1.50;;;23.20;52.90;;;;;;219726;1271;24239;-55
2022/06/15 06:48:43;;;;;;;1.70;1.10;;;23.20;52.80;;;;;;220017;1270;25355;-57
2022/06/15 06:53:50;;;;;;;2.70;1.30;;;23.20;52.80;;;;;;220062;1270;22854;-56
2022/06/15 06:58:55;;;;;;;1.80;1.20;;;23.20;52.70;;;;;;219606;1271;22615;-57
2022/06/15 07:03:57;;;;;;;2.10;1.40;;;23.20;52.70;;;;;;219967;1270;26714;-56
2022/06/15 07:09:02;;;;;;;2.80;1.20;;;23.30;53.10;;;;;;219788;1271;25511;-55
2022/06/15 07:14:06;;;;;;;2.50;1.40;;;23.20;52.70;;;;;;219956;1271;26832;-55
2022/06/15 07:19:16;;;;;;;1.70;1.20;;;23.20;53.10;;;;;;219999;1270;22534;-56
2022/06/15 07:24:18;;;;;;;2.70;1.20;;;23.30;52.80;;;;;;219880;1271;24247;-56
2022/06/15 07:29:22;;;;;;;3.00;1.40;;;23.30;52.80;;;;;;220020;1270;24055;-57
2022/06/15 07:34:25;;;;;;;2.00;1.20;;;23.30;53.00;;;;;;219845;1271;22853;-58
2022/06/15 07:39:28;;;;;;;2.00;1.20;;;23.30;53.00;;;;;;219845;1270;24283;-56
2022/06/15 07:44:41;;;;;;;2.60;1.30;;;23.30;52.60;;;;;;219856;1271;24216;-55
2022/06/15 07:49:55;;;;;;;2.00;1.20;;;23.40;52.70;;;;;;219906;1271;22643;-57
2022/06/15 07:55:25;;;;;;;1.70;1.30;;;23.40;52.60;;;;;;219950;1270;25332;-55
2022/06/15 08:00:31;;;;;;;1.70;1.20;;;23.40;52.60;;;;;;220006;1270;23036;-55
2022/06/15 08:05:48;;;;;;;2.30;1.40;;;23.40;52.50;;;;;;220283;1270;24269;-54
2022/06/15 08:10:56;;;;;;;2.40;1.20;;;23.40;52.50;;;;;;220128;1270;24241;-56
2022/06/15 08:16:03;;;;;;;1.80;1.10;;;23.50;52.50;;;;;;219865;1270;24237;-56
2022/06/15 08:21:19;;;;;;;2.50;1.40;;;23.50;52.50;;;;;;220068;1270;22545;-55
2022/06/15 08:26:32;;;;;;;1.90;1.10;;;23.50;52.40;;;;;;219870;1270;22719;-55
2022/06/15 08:31:36;;;;;;;1.70;1.10;;;23.50;52.40;;;;;;220112;1270;22541;-60
2022/06/15 08:36:42;;;;;;;2.00;1.00;;;23.50;52.30;;;;;;220168;1270;25614;-54
2022/06/15 08:41:50;;;;;;;2.10;1.20;;;23.50;52.00;;;;;;220171;1270;24347;-58
2022/06/15 08:47:32;;;;;;;2.20;1.40;;;23.50;52.30;;;;;;220077;1270;24753;-57
2022/06/15 08:53:14;;;;;;;2.20;1.20;;;23.60;52.40;;;;;;219931;1270;24234;-57
2022/06/15 08:58:46;;;;;;;1.90;1.10;;;23.60;52.30;;;;;;219942;1270;22727;-55
2022/06/15 09:04:34;;;;;;;1.80;1.10;;;23.60;52.30;;;;;;220108;1270;22692;-54
2022/06/15 09:09:36;;;;;;;2.10;1.30;;;23.60;52.30;;;;;;220049;1270;23945;-55
2022/06/15 09:15:06;;;;;;;1.80;1.20;;;23.60;52.60;;;;;;220052;1270;22724;-57
2022/06/15 09:20:15;;;;;;;2.30;1.30;;;23.70;52.30;;;;;;219585;1271;25466;-56
2022/06/15 09:25:32;;;;;;;1.70;1.20;;;23.70;52.30;;;;;;219916;1270;28024;-56
2022/06/15 09:30:44;;;;;;;2.20;1.40;;;23.70;51.70;;;;;;219897;1271;24420;-57
2022/06/15 09:36:02;;;;;;;2.80;1.30;;;23.70;52.20;;;;;;219816;1271;25354;-54
2022/06/15 09:41:27;;;;;;;2.10;1.40;;;23.70;52.20;;;;;;220007;1271;25528;-56
2022/06/15 09:46:38;;;;;;;1.90;1.10;;;23.80;52.20;;;;;;219920;1271;23927;-56
2022/06/15 09:52:09;;;;;;;2.30;1.50;;;23.80;52.40;;;;;;219906;1270;25493;-53
2022/06/15 09:57:24;;;;;;;2.20;1.30;;;23.80;52.10;;;;;;220153;1270;22534;-56
2022/06/15 10:02:34;;;;;;;2.70;1.20;;;23.80;52.10;;;;;;219907;1270;25420;-55
2022/06/15 10:07:44;;;;;;;1.80;1.20;;;23.80;52.00;;;;;;219937;1271;25769;-55
2022/06/15 10:13:06;;;;;;;2.10;1.10;;;23.80;52.30;;;;;;219967;1271;22635;-56
2022/06/15 10:18:43;;;;;;;2.30;1.20;;;23.90;51.60;;;;;;219920;1272;25406;-56
2022/06/15 10:24:03;;;;;;;2.00;1.20;;;23.90;52.00;;;;;;219960;1271;23935;-53
2022/06/15 10:29:15;;;;;;;1.90;1.20;;;23.90;52.30;;;;;;219830;1271;22673;-55
2022/06/15 10:34:25;;;;;;;1.90;1.00;;;23.90;52.00;;;;;;219898;1270;22563;-54
2022/06/15 10:39:40;;;;;;;1.90;1.10;;;23.90;51.90;;;;;;219949;1270;24291;-53
2022/06/15 10:44:57;;;;;;;1.60;1.10;;;24.00;52.00;;;;;;220010;1271;24295;-54
2022/06/15 10:50:06;;;;;;;1.70;1.10;;;24.00;52.00;;;;;;219930;1271;22714;-53
2022/06/15 11:06:18;;;;;;;2.50;1.20;;;24.10;51.70;;;;;;220024;1270;23965;-56
2022/06/15 11:11:26;;;;;;;1.70;1.20;;;24.10;51.80;;;;;;219657;1273;24273;-57
2022/06/15 11:22:06;;;;;;;1.90;1.30;;;24.10;51.80;;;;;;219838;1270;23962;-55
2022/06/15 11:27:28;;;;;;;2.00;1.20;;;24.10;52.20;;;;;;219953;1271;25280;-54
2022/06/15 11:32:43;;;;;;;2.10;1.20;;;24.20;51.80;;;;;;219899;1271;23043;-55
2022/06/15 11:38:23;;;;;;;1.30;0.90;;;24.20;51.80;;;;;;219933;1272;22537;-56
2022/06/15 11:43:25;;;;;;;2.20;1.30;;;24.20;52.00;;;;;;220001;1270;26523;-55
2022/06/15 11:48:43;;;;;;;1.80;0.90;;;24.20;51.80;;;;;;219661;1271;22569;-54
2022/06/15 11:54:11;;;;;;;2.10;1.30;;;24.20;51.90;;;;;;219789;1271;25446;-54
2022/06/15 11:59:38;;;;;;;1.60;1.10;;;24.20;52.10;;;;;;220125;1270;22542;-55
2022/06/15 12:05:01;;;;;;;3.00;1.20;;;24.30;51.80;;;;;;220041;1270;22557;-55
2022/06/15 12:10:20;;;;;;;2.00;1.00;;;24.30;51.80;;;;;;219844;1271;22558;-54
2022/06/15 12:15:49;;;;;;;1.70;1.20;;;24.30;51.80;;;;;;219766;1271;24224;-53
2022/06/15 12:21:23;;;;;;;1.90;1.10;;;24.40;51.80;;;;;;219941;1270;22544;-53
2022/06/15 12:26:26;;;;;;;1.50;1.10;;;24.40;51.70;;;;;;219908;1270;23934;-52
2022/06/15 12:32:12;;;;;;;1.70;1.00;;;24.40;52.10;;;;;;220043;1270;25281;-52
2022/06/15 12:37:36;;;;;;;2.50;1.20;;;24.40;51.70;;;;;;219958;1272;25320;-54
2022/06/15 12:42:45;;;;;;;1.90;1.10;;;24.40;51.60;;;;;;219954;1271;25350;-54
2022/06/15 12:48:00;;;;;;;1.40;1.00;;;24.40;51.70;;;;;;220011;1270;24416;-54
2022/06/15 12:53:21;;;;;;;1.80;1.30;;;24.50;51.70;;;;;;220105;1270;25439;-55
2022/06/15 12:58:51;;;;;;;1.80;1.10;;;24.50;52.20;;;;;;220100;1270;24253;-53
2022/06/15 13:04:04;;;;;;;1.40;1.00;;;24.50;51.80;;;;;;219932;1270;24330;-53
2022/06/15 13:09:14;;;;;;;1.80;1.10;;;24.50;51.60;;;;;;220041;1270;22562;-53
2022/06/15 13:14:23;;;;;;;2.80;1.10;;;24.50;51.70;;;;;;220055;1270;22679;-50
2022/06/15 13:20:01;;;;;;;1.70;1.10;;;24.50;51.70;;;;;;219801;1270;554247;-56
2022/06/15 13:25:10;;;;;;;1.80;1.20;;;24.50;51.70;;;;;;219850;1270;22920;-54
2022/06/15 13:30:30;;;;;;;1.80;1.10;;;24.50;52.00;;;;;;219936;1270;22632;-52
2022/06/15 13:35:42;;;;;;;1.90;1.10;;;24.50;51.60;;;;;;219947;1270;22544;-55
2022/06/15 13:40:54;;;;;;;1.60;0.90;;;24.60;51.80;;;;;;220075;1270;22631;-55
2022/06/15 13:46:28;;;;;;;1.90;1.30;;;24.50;51.70;;;;;;219906;1270;26774;-52
2022/06/15 13:51:37;;;;;;;1.80;1.10;;;24.60;51.20;;;;;;220036;1270;24918;-53
2022/06/15 13:57:14;;;;;;;1.80;1.10;;;24.60;51.60;;;;;;220278;1270;22580;-53
2022/06/15 14:03:11;;;;;;;2.10;1.30;;;24.60;51.70;;;;;;220036;1270;25397;-52
2022/06/15 14:08:44;;;;;;;1.50;1.10;;;24.60;52.00;;;;;;219601;1270;24812;-54
2022/06/15 14:14:21;;;;;;;1.60;0.90;;;24.60;51.70;;;;;;220012;1270;22573;-54
2022/06/15 14:19:40;;;;;;;1.80;1.10;;;24.60;51.70;;;;;;219841;1270;24329;-52
2022/06/15 14:25:03;;;;;;;2.10;1.20;;;24.70;52.10;;;;;;220168;1270;25584;-52
2022/06/15 14:30:29;;;;;;;1.80;1.10;;;24.70;51.70;;;;;;220034;1270;25305;-55
2022/06/15 14:35:33;;;;;;;1.80;1.00;;;24.70;52.10;;;;;;219971;1270;24376;-53
2022/06/15 14:40:43;;;;;;;1.50;1.10;;;24.70;52.10;;;;;;220170;1270;22565;-53
2022/06/15 14:45:54;;;;;;;1.60;1.00;;;24.70;51.60;;;;;;219968;1270;22629;-54
2022/06/15 14:51:31;;;;;;;1.70;1.10;;;24.70;51.80;;;;;;219783;1270;25624;-52
2022/06/15 14:56:48;;;;;;;1.70;1.20;;;24.70;52.10;;;;;;219993;1270;22653;-53
2022/06/15 15:02:05;;;;;;;1.70;1.10;;;24.70;52.10;;;;;;219984;1270;25259;-52
2022/06/15 15:12:51;;;;;;;1.70;1.00;;;24.70;52.10;;;;;;219911;1270;23184;-53
2022/06/15 15:18:16;;;;;;;1.50;1.00;;;24.70;51.70;;;;;;219720;1271;25641;-53
2022/06/15 15:23:46;;;;;;;1.80;1.20;;;24.70;52.10;;;;;;219744;1272;24233;-53
2022/06/15 15:34:59;;;;;;;2.50;1.00;;;24.70;51.70;;;;;;219438;1273;23121;-54
2022/06/15 15:40:20;;;;;;;1.90;1.20;;;24.70;51.70;;;;;;219564;1273;25851;-53
2022/06/15 15:45:56;;;;;;;1.90;1.10;;;24.70;52.10;;;;;;219579;1273;22818;-54
2022/06/15 15:51:20;;;;;;;1.90;1.10;;;24.70;51.60;;;;;;219510;1273;24541;-53
2022/06/15 15:56:29;;;;;;;2.30;1.20;;;24.70;52.00;;;;;;219574;1273;22716;-53
2022/06/15 16:01:44;;;;;;;2.10;1.20;;;24.70;51.70;;;;;;219454;1273;24229;-54
2022/06/15 16:07:23;;;;;;;1.50;1.00;;;24.70;51.70;;;;;;220023;1270;22537;-53
2022/06/15 16:12:37;;;;;;;1.40;1.00;;;24.70;51.30;;;;;;219898;1270;24390;-50
2022/06/15 16:17:58;;;;;;;2.40;1.30;;;24.70;51.60;;;;;;219927;1270;24240;-54
2022/06/15 16:23:29;;;;;;;1.80;1.00;;;24.70;51.70;;;;;;220066;1270;24286;-52
2022/06/15 16:29:11;;;;;;;1.70;1.10;;;24.70;51.70;;;;;;220099;1270;25265;-53
2022/06/15 16:34:35;;;;;;;2.80;1.20;;;24.70;51.50;;;;;;219726;1271;22543;-51
2022/06/15 16:39:52;;;;;;;1.60;1.00;;;24.70;51.60;;;;;;219962;1270;24214;-51
2022/06/15 16:45:11;;;;;;;1.80;1.20;;;24.70;52.10;;;;;;220030;1270;25512;-55
2022/06/15 16:50:29;;;;;;;1.50;1.00;;;24.70;52.30;;;;;;219930;1270;24826;-54
2022/06/15 16:55:53;;;;;;;2.40;1.40;;;24.70;51.60;;;;;;220079;1270;24234;-53
2022/06/15 17:01:29;;;;;;;1.60;1.00;;;24.70;51.70;;;;;;220035;1270;25390;-52
2022/06/15 17:07:16;;;;;;;1.40;1.00;;;24.70;51.60;;;;;;220146;1270;22571;-53
2022/06/15 17:12:48;;;;;;;1.90;1.20;;;24.70;51.70;;;;;;220103;1271;26712;-48
2022/06/15 17:18:02;;;;;;;2.10;0.90;;;24.70;51.70;;;;;;219912;1270;24536;-53
2022/06/15 17:23:18;;;;;;;2.40;1.20;;;24.70;52.30;;;;;;219982;1272;26592;-53
2022/06/15 17:28:33;;;;;;;1.80;1.20;;;24.70;51.60;;;;;;220080;1270;22560;-51
2022/06/15 17:33:38;;;;;;;1.80;1.10;;;24.70;51.70;;;;;;220021;1270;22546;-52
2022/06/15 17:39:06;;;;;;;2.10;1.10;;;24.70;52.00;;;;;;219782;1272;26639;-52
2022/06/15 17:44:21;;;;;;;1.30;0.90;;;24.70;52.30;;;;;;219921;1273;22569;-54
2022/06/15 17:49:44;;;;;;;1.40;1.00;;;24.70;52.10;;;;;;219993;1271;24257;-53
2022/06/15 17:54:57;;;;;;;1.80;1.10;;;24.60;52.10;;;;;;219871;1271;22734;-53
2022/06/15 18:00:08;;;;;;;2.00;1.10;;;24.70;52.10;;;;;;219721;1271;23976;-53
2022/06/15 18:05:20;;;;;;;1.70;1.10;;;24.60;52.30;;;;;;219961;1271;25365;-52
2022/06/15 18:10:50;;;;;;;1.80;1.10;;;24.70;52.10;;;;;;220157;1270;26581;-54
2022/06/15 18:15:57;;;;;;;2.20;1.20;;;24.60;51.60;;;;;;220068;1271;25432;-52
2022/06/15 18:21:12;;;;;;;1.40;1.10;;;24.60;52.30;;;;;;220148;1270;24229;-54
2022/06/15 18:26:28;;;;;;;1.90;1.00;;;24.60;52.30;;;;;;220203;1270;25330;-54
2022/06/15 18:31:56;;;;;;;3.20;1.40;;;24.60;51.60;;;;;;219905;1270;22540;-57
2022/06/15 18:37:08;;;;;;;1.40;1.00;;;24.60;52.20;;;;;;220177;1270;22685;-52
2022/06/15 18:42:19;;;;;;;1.30;0.90;;;24.50;52.10;;;;;;220167;1270;24312;-57
2022/06/15 18:47:49;;;;;;;1.50;1.00;;;24.60;52.20;;;;;;220003;1270;24240;-53
2022/06/15 18:53:03;;;;;;;2.30;1.10;;;24.60;52.20;;;;;;220095;1270;24230;-55
2022/06/15 18:58:39;;;;;;;1.40;1.00;;;24.60;52.20;;;;;;220009;1270;24275;-54
2022/06/15 19:03:50;;;;;;;1.90;1.10;;;24.50;52.20;;;;;;219985;1271;23665;-53
2022/06/15 19:08:53;;;;;;;2.20;1.00;;;24.60;52.20;;;;;;220262;1271;22565;-53
2022/06/15 19:13:59;;;;;;;1.50;1.00;;;24.60;52.30;;;;;;220009;1270;22590;-53
2022/06/15 19:19:04;;;;;;;2.90;1.40;;;24.50;52.30;;;;;;220122;1271;22551;-57
2022/06/15 19:24:40;;;;;;;1.80;0.90;;;24.50;52.30;;;;;;220237;1270;25438;-54
2022/06/15 19:29:51;;;;;;;2.20;1.10;;;24.50;52.80;;;;;;220152;1270;22548;-52
2022/06/15 19:34:54;;;;;;;1.70;1.10;;;24.50;52.30;;;;;;220132;1270;25360;-54
2022/06/15 19:39:56;;;;;;;3.70;1.30;;;24.50;52.40;;;;;;220032;1271;22603;-51
2022/06/15 19:44:58;;;;;;;2.10;1.40;;;24.50;52.50;;;;;;220074;1271;22730;-51
2022/06/15 19:50:01;;;;;;;2.50;1.30;;;24.50;52.40;;;;;;220155;1270;22716;-57
2022/06/15 19:55:06;;;;;;;2.10;1.30;;;24.50;52.50;;;;;;220166;1271;22850;-58
2022/06/15 20:00:12;;;;;;;2.60;1.60;;;24.50;52.50;;;;;;220126;1271;24327;-55
2022/06/15 20:05:14;;;;;;;2.40;1.40;;;24.50;52.10;;;;;;220119;1271;22694;-53
2022/06/15 20:10:21;;;;;;;2.60;1.40;;;24.50;52.50;;;;;;220029;1271;22705;-53
2022/06/15 20:15:24;;;;;;;2.50;1.40;;;24.50;52.60;;;;;;219659;1271;22567;-53
2022/06/15 20:20:36;;;;;;;3.80;1.50;;;24.50;52.60;;;;;;220156;1271;22837;-50
2022/06/15 20:26:00;;;;;;;1.90;1.20;;;24.40;52.80;;;;;;220063;1271;23069;-54
2022/06/15 20:31:03;;;;;;;1.70;1.10;;;24.40;52.50;;;;;;220186;1270;25450;-54
2022/06/15 20:36:08;;;;;;;1.90;1.30;;;24.40;52.60;;;;;;220203;1270;22550;-58
2022/06/15 20:41:17;;;;;;;2.40;1.40;;;24.40;52.60;;;;;;220216;1271;24140;-52
2022/06/15 20:46:38;;;;;;;1.60;1.20;;;24.40;52.90;;;;;;220023;1270;25415;-52
2022/06/15 20:52:01;;;;;;;1.80;1.20;;;24.40;52.60;;;;;;220035;1271;25364;-52
2022/06/15 20:57:29;;;;;;;2.40;1.40;;;24.40;52.90;;;;;;220067;1271;22855;-52
2022/06/15 21:02:37;;;;;;;1.90;1.20;;;24.40;52.70;;;;;;220150;1270;22533;-54
2022/06/15 21:07:43;;;;;;;2.90;1.30;;;24.40;52.70;;;;;;220086;1270;22656;-53
2022/06/15 21:18:33;;;;;;;2.30;1.60;;;24.30;52.70;;;;;;220132;1271;22641;-53
2022/06/15 21:23:40;;;;;;;3.30;1.50;;;24.30;52.80;;;;;;220034;1271;22538;-56
2022/06/15 21:28:49;;;;;;;1.90;1.10;;;24.30;52.80;;;;;;219997;1272;25515;-54
2022/06/15 21:33:58;;;;;;;2.40;1.50;;;24.30;53.20;;;;;;219866;1271;24368;-56
2022/06/15 21:39:24;;;;;;;2.80;1.70;;;24.30;52.80;;;;;;219928;1271;22645;-55
2022/06/15 21:44:35;;;;;;;1.70;1.20;;;24.30;53.10;;;;;;220067;1271;24308;-53
2022/06/15 21:49:47;;;;;;;2.40;1.40;;;24.30;52.80;;;;;;219940;1271;22631;-54
2022/06/15 21:55:11;;;;;;;2.40;1.40;;;24.30;52.80;;;;;;219879;1271;22557;-54
2022/06/15 22:00:40;;;;;;;;;;;;;;;;;;;;;
2022/06/15 22:05:56;;;;;;;2.00;1.10;;;24.30;52.90;;;;;;220136;1270;22572;-55
2022/06/15 22:11:08;;;;;;;2.30;1.40;;;24.30;52.90;;;;;;219988;1272;22596;-54
2022/06/15 22:16:24;;;;;;;3.20;1.60;;;24.30;52.90;;;;;;219852;1271;22915;-52
2022/06/15 22:21:27;;;;;;;1.90;1.30;;;24.20;53.20;;;;;;219932;1272;22547;-52
2022/06/15 22:26:33;;;;;;;2.30;1.50;;;24.20;52.90;;;;;;220103;1271;25400;-53
2022/06/15 22:31:41;;;;;;;2.50;1.40;;;24.20;52.90;;;;;;220014;1271;23916;-52
2022/06/15 22:36:48;;;;;;;2.20;1.40;;;24.20;53.30;;;;;;220148;1271;24606;-56
2022/06/15 22:41:52;;;;;;;2.40;1.60;;;24.20;53.00;;;;;;220137;1271;22648;-52
2022/06/15 22:47:02;;;;;;;2.30;1.50;;;24.20;53.00;;;;;;220122;1271;24774;-53
2022/06/15 22:52:05;;;;;;;2.40;1.50;;;24.20;53.00;;;;;;220251;1271;25278;-55
2022/06/15 22:57:08;;;;;;;2.10;1.50;;;24.20;53.70;;;;;;220024;1273;25277;-54
2022/06/15 23:02:10;;;;;;;2.00;1.50;;;24.20;53.00;;;;;;219926;1271;24306;-54
2022/06/15 23:07:16;;;;;;;2.50;1.40;;;24.20;53.70;;;;;;220096;1271;25341;-54
2022/06/15 23:12:19;;;;;;;2.10;1.30;;;24.10;53.00;;;;;;220045;1271;24356;-55
2022/06/15 23:17:21;;;;;;;4.50;1.70;;;24.10;53.00;;;;;;220161;1271;24681;-54
2022/06/15 23:22:24;;;;;;;1.90;1.30;;;24.10;53.00;;;;;;219987;1274;22547;-55
2022/06/15 23:27:26;;;;;;;3.70;1.90;;;24.10;53.10;;;;;;220129;1270;24145;-53
2022/06/15 23:32:29;;;;;;;3.30;1.60;;;24.10;53.10;;;;;;219978;1271;22580;-55
2022/06/15 23:37:33;;;;;;;2.20;1.40;;;24.10;52.90;;;;;;220081;1271;22556;-55
2022/06/15 23:42:42;;;;;;;1.90;1.30;;;24.10;53.40;;;;;;220103;1270;22661;-54
2022/06/15 23:47:49;;;;;;;2.40;1.40;;;24.10;53.10;;;;;;220008;1271;22562;-55
2022/06/15 23:52:51;;;;;;;2.60;1.60;;;24.10;53.10;;;;;;220047;1271;25831;-55
2022/06/15 23:57:54;;;;;;;2.10;1.40;;;24.10;53.10;;;;;;220030;1270;24312;-57
